Time;durP1;ratioP1;P1;durP2;ratioP2;P2;SDS_P1;SDS_P2;PMS_P1;PMS_P2;Temp;Humidity;BMP_temperature;BMP_pressure;BME280_temperature;BME280_humidity;BME280_pressure;Samples;Min_cycle;Max_cycle;Signal;HPM_P1;HPM_P2
2022/02/15 00:01:06;;;;;;;3.53;1.27;;;6.30;1.00;;;;;;5074800;28;20170;-79
2022/02/15 00:03:32;;;;;;;3.50;1.10;;;6.30;1.00;;;;;;5074634;28;20209;-78
2022/02/15 00:05:58;;;;;;;2.70;1.67;;;6.20;1.00;;;;;;5074814;28;20630;-78
2022/02/15 00:08:24;;;;;;;2.03;1.73;;;6.20;1.00;;;;;;5074684;28;20177;-78
2022/02/15 00:10:52;;;;;;;3.03;1.90;;;6.20;1.00;;;;;;5074559;28;20414;-78
2022/02/15 00:13:18;;;;;;;3.23;2.00;;;6.10;2.20;;;;;;5074138;28;20421;-78
2022/02/15 00:15:44;;;;;;;5.40;2.10;;;6.10;3.70;;;;;;5074316;28;20834;-79
2022/02/15 00:18:10;;;;;;;1.60;1.30;;;6.10;5.60;;;;;;5074548;28;20173;-78
2022/02/15 00:20:35;;;;;;;2.50;1.43;;;6.10;6.60;;;;;;5074418;28;20180;-78
2022/02/15 00:23:01;;;;;;;4.93;1.80;;;6.10;14.00;;;;;;5074241;28;20455;-78
2022/02/15 00:25:27;;;;;;;2.20;1.47;;;6.20;1.00;;;;;;5074371;28;20250;-78
2022/02/15 00:27:53;;;;;;;7.23;2.10;;;6.20;1.00;;;;;;5073750;28;20411;-78
2022/02/15 00:30:19;;;;;;;3.27;1.57;;;6.30;1.00;;;;;;5074309;28;20201;-78
2022/02/15 00:32:45;;;;;;;4.63;1.50;;;6.30;1.00;;;;;;5074179;28;20502;-77
2022/02/15 00:35:11;;;;;;;4.40;1.07;;;6.40;1.00;;;;;;5074092;28;20557;-78
2022/02/15 00:37:38;;;;;;;1.93;0.80;;;6.40;1.00;;;;;;5074077;28;20197;-79
2022/02/15 00:40:04;;;;;;;1.67;0.80;;;6.40;1.00;;;;;;5073947;28;20420;-78
2022/02/15 00:42:30;;;;;;;3.27;0.97;;;6.40;1.00;;;;;;5073493;28;20469;-79
2022/02/15 00:44:55;;;;;;;9.33;1.80;;;6.50;1.00;;;;;;5073925;28;20466;-78
2022/02/15 00:47:21;;;;;;;5.10;1.53;;;6.50;1.00;;;;;;5073794;28;20177;-79
2022/02/15 00:49:46;;;;;;;6.10;1.47;;;6.60;1.00;;;;;;5073816;28;20177;-79
2022/02/15 00:52:12;;;;;;;3.47;1.03;;;6.60;1.00;;;;;;5073741;28;20165;-78
2022/02/15 00:54:37;;;;;;;2.83;1.07;;;6.60;1.00;;;;;;5073621;28;20167;-79
2022/02/15 00:57:03;;;;;;;3.90;1.70;;;6.60;1.00;;;;;;5073421;28;20277;-79
2022/02/15 00:59:29;;;;;;;3.30;1.33;;;6.60;1.00;;;;;;5073549;28;20268;-78
2022/02/15 01:01:54;;;;;;;4.80;0.73;;;6.70;1.00;;;;;;5073550;28;20173;-80
2022/02/15 01:04:20;;;;;;;5.83;1.90;;;6.70;1.00;;;;;;5073576;28;20210;-79
2022/02/15 01:06:45;;;;;;;8.13;1.97;;;6.70;1.00;;;;;;5073427;28;20629;-79
2022/02/15 01:09:11;;;;;;;5.43;2.40;;;6.80;1.00;;;;;;5073379;28;20265;-80
2022/02/15 01:11:38;;;;;;;4.47;1.57;;;6.80;1.00;;;;;;5073375;28;20658;-79
2022/02/15 01:14:04;;;;;;;3.57;1.63;;;6.90;1.00;;;;;;5073078;28;20174;-79
2022/02/15 01:16:29;;;;;;;7.40;1.37;;;7.00;1.00;;;;;;5073401;28;20828;-79
2022/02/15 01:18:55;;;;;;;5.60;1.47;;;7.20;1.00;;;;;;5073300;28;20707;-79
2022/02/15 01:21:20;;;;;;;2.43;1.63;;;7.20;1.00;;;;;;5073300;28;20656;-79
2022/02/15 01:23:46;;;;;;;2.87;1.50;;;7.20;1.00;;;;;;5073084;28;20296;-79
2022/02/15 01:26:11;;;;;;;3.33;2.10;;;7.30;1.00;;;;;;5073196;28;20295;-79
2022/02/15 01:28:40;;;;;;;4.20;1.40;;;7.30;1.00;;;;;;5072891;28;20181;-79
2022/02/15 01:31:06;;;;;;;4.57;2.20;;;7.40;99.90;;;;;;5073161;28;20174;-79
2022/02/15 01:33:32;;;;;;;6.13;2.00;;;;;;;;;;5073121;28;20412;-79
2022/02/15 01:35:59;;;;;;;4.80;1.90;;;7.50;99.90;;;;;;5073156;28;20264;-79
2022/02/15 01:38:25;;;;;;;3.80;2.47;;;7.50;99.90;;;;;;5072927;28;20862;-79
2022/02/15 01:40:53;;;;;;;3.87;2.23;;;7.40;99.90;;;;;;5072310;28;20545;-79
2022/02/15 01:43:23;;;;;;;8.80;2.20;;;7.50;99.90;;;;;;5072543;28;20238;-79
2022/02/15 01:45:48;;;;;;;6.53;2.40;;;7.50;99.90;;;;;;5072906;28;20435;-80
2022/02/15 01:48:14;;;;;;;5.87;2.50;;;7.50;99.90;;;;;;5071606;28;20417;-79
2022/02/15 01:50:39;;;;;;;5.73;2.07;;;7.50;99.90;;;;;;5072835;28;20644;-79
2022/02/15 01:53:05;;;;;;;4.83;1.93;;;7.50;99.90;;;;;;5072790;28;20223;-79
2022/02/15 01:55:31;;;;;;;5.97;2.07;;;7.50;99.90;;;;;;5072865;28;20171;-78
2022/02/15 01:57:56;;;;;;;4.43;2.63;;;7.50;99.90;;;;;;5072436;28;20267;-79
2022/02/15 02:00:22;;;;;;;4.47;2.00;;;7.60;99.90;;;;;;5072685;28;20449;-78
2022/02/15 02:02:48;;;;;;;6.83;2.87;;;7.50;99.90;;;;;;5072612;28;20627;-78
2022/02/15 02:07:58;;;;;;;4.30;2.73;;;7.60;99.90;;;;;;5073046;28;20556;-77
2022/02/15 02:10:33;;;;;;;2.70;1.67;;;7.60;99.90;;;;;;5072693;28;20421;-78
2022/02/15 02:12:58;;;;;;;5.60;1.87;;;7.70;99.90;;;;;;5072335;28;20428;-77
2022/02/15 02:15:25;;;;;;;4.97;3.73;;;7.70;99.90;;;;;;5071370;28;20488;-78
2022/02/15 02:17:52;;;;;;;5.60;3.67;;;7.60;99.90;;;;;;5072584;28;20167;-78
2022/02/15 02:20:18;;;;;;;6.07;2.80;;;7.60;99.90;;;;;;5071217;28;20420;-78
2022/02/15 02:22:44;;;;;;;4.10;2.60;;;7.60;99.90;;;;;;5072453;28;20852;-78
2022/02/15 02:25:12;;;;;;;5.50;3.80;;;7.60;99.90;;;;;;5072535;28;20406;-78
2022/02/15 02:27:39;;;;;;;4.73;2.90;;;7.60;99.90;;;;;;5071996;28;20428;-78
2022/02/15 02:30:05;;;;;;;5.03;2.80;;;7.60;99.90;;;;;;5072479;28;20422;-78
2022/02/15 02:32:31;;;;;;;4.13;2.80;;;7.60;99.90;;;;;;5072429;28;20957;-78
2022/02/15 02:34:58;;;;;;;5.30;2.97;;;7.60;99.90;;;;;;5072528;28;20448;-78
2022/02/15 02:37:24;;;;;;;6.60;3.43;;;7.60;99.90;;;;;;5072475;28;20418;-78
2022/02/15 02:39:51;;;;;;;6.10;2.93;;;7.70;99.90;;;;;;5072444;28;20431;-78
2022/02/15 02:42:19;;;;;;;4.33;3.37;;;7.70;99.90;;;;;;5071840;28;20223;-78
2022/02/15 02:44:46;;;;;;;7.90;4.30;;;7.70;99.90;;;;;;5072216;28;20471;-78
2022/02/15 02:47:11;;;;;;;8.70;3.77;;;7.70;99.90;;;;;;5072368;28;20417;-78
2022/02/15 02:49:37;;;;;;;7.60;4.13;;;7.70;99.90;;;;;;5072275;28;20422;-78
2022/02/15 02:52:03;;;;;;;4.67;3.80;;;7.70;99.90;;;;;;5073437;28;20560;-78
2022/02/15 02:54:29;;;;;;;6.10;2.77;;;7.70;99.90;;;;;;5076059;28;20635;-78
2022/02/15 02:56:57;;;;;;;8.10;4.00;;;7.70;99.90;;;;;;5075631;28;20450;-78
2022/02/15 02:59:23;;;;;;;5.13;3.90;;;7.60;1.00;;;;;;5076097;28;20228;-78
2022/02/15 03:01:48;;;;;;;4.90;2.80;;;7.60;1.00;;;;;;5075930;28;20764;-78
2022/02/15 03:04:14;;;;;;;8.70;3.63;;;7.70;1.00;;;;;;5075784;28;20244;-78
2022/02/15 03:06:40;;;;;;;4.47;3.03;;;7.60;1.00;;;;;;5075957;28;20614;-78
2022/02/15 03:09:05;;;;;;;5.97;4.57;;;7.60;1.00;;;;;;5075704;28;20294;-78
2022/02/15 03:11:32;;;;;;;6.77;2.80;;;7.60;1.00;;;;;;5077208;28;20193;-78
2022/02/15 03:14:01;;;;;;;8.53;4.90;;;7.50;1.00;;;;;;5086846;28;20171;-79
2022/02/15 03:16:27;;;;;;;5.90;3.90;;;7.50;1.00;;;;;;5075667;28;20404;-79
2022/02/15 03:18:53;;;;;;;6.40;4.47;;;7.50;1.00;;;;;;5075619;28;20430;-78
2022/02/15 03:21:19;;;;;;;9.43;4.43;;;7.50;1.00;;;;;;5075560;28;20489;-78
2022/02/15 03:23:45;;;;;;;6.07;4.27;;;7.50;1.00;;;;;;5075449;28;20874;-78
2022/02/15 03:26:11;;;;;;;10.90;5.50;;;7.50;1.00;;;;;;5075470;28;20256;-78
2022/02/15 03:28:37;;;;;;;7.77;3.50;;;7.50;1.00;;;;;;5075052;28;20481;-78
2022/02/15 03:31:04;;;;;;;8.57;5.20;;;7.40;1.00;;;;;;5075381;28;20411;-78
2022/02/15 03:33:29;;;;;;;5.93;4.90;;;7.40;1.00;;;;;;5075326;28;20540;-78
2022/02/15 03:35:55;;;;;;;6.53;4.83;;;7.30;1.00;;;;;;5075099;28;20419;-78
2022/02/15 03:38:21;;;;;;;4.43;3.23;;;7.30;6.40;;;;;;5075221;28;20182;-78
2022/02/15 03:43:30;;;;;;;5.90;3.53;;;7.30;99.90;;;;;;5074841;28;20208;-78
2022/02/15 03:45:56;;;;;;;9.17;6.23;;;7.20;99.90;;;;;;5075035;28;20916;-78
2022/02/15 03:48:22;;;;;;;7.13;4.83;;;7.00;99.90;;;;;;5075171;28;20182;-78
2022/02/15 03:50:48;;;;;;;5.27;4.03;;;6.90;99.90;;;;;;5075070;28;20435;-78
2022/02/15 03:53:15;;;;;;;10.40;4.70;;;6.90;99.90;;;;;;5075011;28;20200;-78
2022/02/15 03:55:42;;;;;;;7.40;4.80;;;6.90;99.90;;;;;;5073766;28;20163;-78
2022/02/15 03:58:08;;;;;;;8.00;4.37;;;6.80;99.90;;;;;;5073148;28;20531;-78
2022/02/15 04:00:33;;;;;;;7.00;4.33;;;6.90;99.90;;;;;;5074814;28;20558;-78
2022/02/15 04:02:59;;;;;;;6.60;4.50;;;6.90;99.90;;;;;;5073086;28;20226;-79
2022/02/15 04:05:24;;;;;;;3.97;3.57;;;6.80;99.90;;;;;;5074775;28;20585;-79
2022/02/15 04:07:50;;;;;;;4.93;4.30;;;6.80;99.90;;;;;;5074719;28;20162;-79
2022/02/15 04:10:17;;;;;;;9.33;4.83;;;6.80;99.90;;;;;;5074662;28;20192;-79
2022/02/15 04:12:43;;;;;;;4.67;3.63;;;6.70;99.90;;;;;;5074221;28;20215;-78
2022/02/15 04:15:12;;;;;;;4.77;3.33;;;6.60;99.90;;;;;;5074618;28;20454;-78
2022/02/15 04:17:37;;;;;;;2.83;2.17;;;6.60;99.90;;;;;;5074433;28;20924;-78
2022/02/15 04:20:04;;;;;;;5.47;2.83;;;6.70;99.90;;;;;;5073152;28;20494;-78
2022/02/15 04:22:29;;;;;;;5.03;2.70;;;6.60;99.90;;;;;;5074365;28;20177;-78
2022/02/15 04:24:55;;;;;;;4.60;3.40;;;6.60;99.90;;;;;;5074187;28;20970;-78
2022/02/15 04:27:20;;;;;;;5.83;3.20;;;6.50;99.90;;;;;;5073927;28;20180;-78
2022/02/15 04:29:49;;;;;;;5.37;3.37;;;6.60;99.90;;;;;;5074331;28;20173;-78
2022/02/15 04:32:14;;;;;;;5.10;3.43;;;6.60;99.90;;;;;;5074243;28;21059;-78
2022/02/15 04:34:41;;;;;;;4.50;3.80;;;6.60;99.90;;;;;;5074218;28;20396;-78
2022/02/15 04:37:07;;;;;;;4.63;3.00;;;6.60;99.90;;;;;;5074025;28;20515;-78
2022/02/15 04:39:33;;;;;;;5.00;3.10;;;6.60;99.90;;;;;;5074116;28;20408;-78
2022/02/15 04:41:58;;;;;;;7.33;4.17;;;6.70;99.90;;;;;;5073494;28;20465;-78
2022/02/15 04:44:24;;;;;;;5.20;4.10;;;6.70;99.90;;;;;;5072570;28;20217;-78
2022/02/15 04:46:50;;;;;;;8.50;3.67;;;6.60;99.90;;;;;;5074049;28;20169;-79
2022/02/15 04:49:15;;;;;;;8.80;4.60;;;6.60;99.90;;;;;;5073793;28;20244;-79
2022/02/15 04:51:40;;;;;;;6.10;3.80;;;6.50;99.90;;;;;;5073822;28;20170;-79
2022/02/15 04:54:06;;;;;;;6.67;3.10;;;6.50;99.90;;;;;;5073775;28;20547;-79
2022/02/15 04:56:32;;;;;;;4.43;3.03;;;6.50;99.90;;;;;;5073264;28;20179;-79
2022/02/15 04:58:57;;;;;;;9.33;3.70;;;6.50;99.90;;;;;;5073572;28;20177;-79
2022/02/15 05:01:23;;;;;;;6.33;4.73;;;6.50;99.90;;;;;;5073673;28;20205;-79
2022/02/15 05:03:49;;;;;;;7.00;4.27;;;6.50;99.90;;;;;;5072228;28;20665;-78
2022/02/15 05:06:17;;;;;;;6.10;4.00;;;6.50;99.90;;;;;;5073605;28;20629;-78
2022/02/15 05:08:42;;;;;;;8.43;4.27;;;6.50;99.90;;;;;;5072143;28;20435;-78
2022/02/15 05:11:08;;;;;;;5.10;3.63;;;6.50;99.90;;;;;;5073078;28;20412;-78
2022/02/15 05:13:34;;;;;;;3.50;3.17;;;6.50;99.90;;;;;;5073324;28;20264;-78
2022/02/15 05:16:00;;;;;;;5.87;4.27;;;6.50;99.90;;;;;;5072737;28;20196;-78
2022/02/15 05:18:27;;;;;;;6.30;4.00;;;6.50;99.90;;;;;;5073337;28;20415;-78
2022/02/15 05:20:53;;;;;;;6.20;3.93;;;6.50;99.90;;;;;;5073256;28;20416;-78
2022/02/15 05:23:18;;;;;;;8.33;4.27;;;6.50;99.90;;;;;;5073227;28;20546;-78
2022/02/15 05:25:44;;;;;;;5.83;4.37;;;6.50;99.90;;;;;;5073202;28;20172;-79
2022/02/15 05:28:12;;;;;;;6.73;4.10;;;6.50;99.90;;;;;;5071468;28;20174;-79
2022/02/15 05:30:38;;;;;;;6.60;4.13;;;6.50;99.90;;;;;;5071985;28;20256;-78
2022/02/15 05:33:04;;;;;;;5.20;3.80;;;6.50;99.90;;;;;;5071810;28;20515;-78
2022/02/15 05:35:29;;;;;;;5.73;4.37;;;6.40;99.90;;;;;;5073091;28;20173;-78
2022/02/15 05:37:55;;;;;;;8.00;4.57;;;6.40;99.90;;;;;;5072999;28;20176;-78
2022/02/15 05:40:23;;;;;;;5.93;4.00;;;6.40;99.90;;;;;;5072742;28;20205;-78
2022/02/15 05:42:49;;;;;;;7.73;3.97;;;6.40;99.90;;;;;;5072381;28;20596;-78
2022/02/15 05:45:15;;;;;;;6.87;5.13;;;6.40;99.90;;;;;;5072954;28;20530;-78
2022/02/15 05:47:40;;;;;;;7.23;4.47;;;6.40;99.90;;;;;;5072941;28;20211;-78
2022/02/15 05:52:51;;;;;;;8.47;4.83;;;6.40;99.90;;;;;;5073103;28;20689;-78
2022/02/15 05:55:16;;;;;;;5.00;4.30;;;6.30;99.90;;;;;;5072850;28;20413;-79
2022/02/15 05:57:42;;;;;;;8.67;4.57;;;6.30;99.90;;;;;;5072361;28;20172;-78
2022/02/15 06:00:09;;;;;;;6.63;5.17;;;6.30;99.90;;;;;;5072717;28;20166;-79
2022/02/15 06:02:35;;;;;;;8.03;4.27;;;6.30;99.90;;;;;;5071321;28;20432;-78
2022/02/15 06:05:04;;;;;;;10.87;5.80;;;6.30;99.90;;;;;;5072656;28;20480;-79
2022/02/15 06:07:29;;;;;;;8.50;4.83;;;6.20;99.90;;;;;;5072459;28;20176;-78
2022/02/15 06:09:57;;;;;;;10.67;4.37;;;6.20;99.90;;;;;;5072618;28;20767;-79
2022/02/15 06:12:23;;;;;;;11.03;6.20;;;6.10;99.90;;;;;;5072199;28;20403;-78
2022/02/15 06:14:48;;;;;;;7.63;4.30;;;6.10;99.90;;;;;;5072523;28;20495;-79
2022/02/15 06:17:14;;;;;;;5.70;4.00;;;6.10;99.90;;;;;;5072175;28;20691;-79
2022/02/15 06:19:39;;;;;;;8.73;5.40;;;6.20;99.90;;;;;;5072520;28;20330;-78
2022/02/15 06:22:05;;;;;;;7.17;4.73;;;6.20;99.90;;;;;;5072480;28;20197;-79
2022/02/15 06:24:30;;;;;;;7.03;4.53;;;6.30;99.90;;;;;;5071557;28;20244;-79
2022/02/15 06:27:01;;;;;;;6.43;3.23;;;6.30;99.90;;;;;;5074586;28;20173;-78
2022/02/15 06:29:31;;;;;;;6.70;3.73;;;6.30;99.90;;;;;;5076517;28;20602;-78
2022/02/15 06:32:08;;;;;;;6.23;4.40;;;6.40;99.90;;;;;;5075657;28;20420;-78
2022/02/15 06:34:34;;;;;;;7.13;4.00;;;6.30;99.90;;;;;;5074747;28;20457;-78
2022/02/15 06:37:00;;;;;;;7.30;4.50;;;6.30;99.90;;;;;;5075238;28;20399;-79
2022/02/15 06:39:25;;;;;;;8.57;5.20;;;6.30;99.90;;;;;;5076391;28;20197;-79
2022/02/15 06:41:50;;;;;;;9.43;5.93;;;6.30;99.90;;;;;;5075815;28;20223;-79
2022/02/15 06:44:16;;;;;;;7.77;4.50;;;6.20;99.90;;;;;;5074981;28;20296;-79
2022/02/15 06:46:41;;;;;;;10.33;4.67;;;6.30;99.90;;;;;;5076124;28;20252;-80
2022/02/15 06:49:07;;;;;;;6.37;3.63;;;6.30;99.90;;;;;;5076081;28;20181;-79
2022/02/15 06:51:32;;;;;;;8.43;4.43;;;6.30;99.90;;;;;;5074747;28;20257;-79
2022/02/15 06:53:58;;;;;;;11.00;4.97;;;6.30;99.90;;;;;;5076075;28;20187;-78
2022/02/15 06:56:23;;;;;;;6.83;3.80;;;6.40;99.90;;;;;;5075622;28;20653;-79
2022/02/15 06:58:49;;;;;;;4.80;3.87;;;6.30;99.90;;;;;;5075828;28;20182;-79
2022/02/15 07:01:15;;;;;;;6.33;4.60;;;6.40;99.90;;;;;;5075900;28;20194;-79
2022/02/15 07:03:40;;;;;;;6.93;4.60;;;6.40;99.90;;;;;;5075782;28;20204;-79
2022/02/15 07:06:08;;;;;;;5.30;4.00;;;6.40;99.90;;;;;;5074445;28;20443;-79
2022/02/15 07:08:33;;;;;;;8.97;5.80;;;6.40;99.90;;;;;;5075698;28;20633;-79
2022/02/15 07:10:59;;;;;;;7.50;4.30;;;6.40;99.90;;;;;;5075403;28;20498;-79
2022/02/15 07:13:25;;;;;;;11.83;5.30;;;6.40;99.90;;;;;;5075711;28;20177;-79
2022/02/15 07:15:51;;;;;;;9.30;4.80;;;6.40;99.90;;;;;;5074421;28;20179;-79
2022/02/15 07:18:17;;;;;;;6.90;4.93;;;6.40;99.90;;;;;;5075646;28;20417;-78
2022/02/15 07:20:42;;;;;;;8.73;5.23;;;6.50;99.90;;;;;;5075453;28;20503;-79
2022/02/15 07:23:10;;;;;;;8.07;5.03;;;6.50;99.90;;;;;;5074240;28;20591;-78
2022/02/15 07:25:44;;;;;;;11.07;5.77;;;6.60;99.90;;;;;;5075576;28;20211;-79
2022/02/15 07:28:10;;;;;;;7.13;5.20;;;6.60;99.90;;;;;;5075509;28;20476;-79
2022/02/15 07:30:35;;;;;;;7.17;4.93;;;6.70;99.90;;;;;;5075400;28;20428;-78
2022/02/15 07:33:02;;;;;;;9.90;5.53;;;6.70;99.90;;;;;;5075510;28;20174;-79
2022/02/15 07:35:28;;;;;;;11.10;4.93;;;6.70;99.90;;;;;;5075318;28;20632;-79
2022/02/15 07:37:53;;;;;;;7.60;4.67;;;6.70;99.90;;;;;;5074352;28;20427;-79
2022/02/15 07:40:22;;;;;;;8.33;6.63;;;6.70;99.90;;;;;;5075247;28;20166;-79
2022/02/15 07:42:51;;;;;;;8.27;5.60;;;6.80;99.90;;;;;;5074810;28;20185;-79
2022/02/15 07:45:18;;;;;;;8.30;5.00;;;6.80;99.90;;;;;;5075038;28;20468;-78
2022/02/15 07:47:48;;;;;;;5.93;4.50;;;6.80;99.90;;;;;;5075108;28;20404;-78
2022/02/15 07:50:15;;;;;;;7.13;4.90;;;6.80;99.90;;;;;;5075159;28;20425;-78
2022/02/15 07:52:41;;;;;;;9.03;5.60;;;6.90;99.90;;;;;;5075047;28;20414;-79
2022/02/15 07:55:07;;;;;;;7.33;4.97;;;6.90;99.90;;;;;;5075089;28;20455;-79
2022/02/15 07:57:33;;;;;;;6.20;4.20;;;7.00;99.90;;;;;;5074592;28;20440;-79
2022/02/15 07:59:58;;;;;;;9.20;5.00;;;7.00;99.90;;;;;;5074968;28;20917;-78
2022/02/15 08:02:24;;;;;;;6.13;4.00;;;7.10;99.90;;;;;;5074799;28;20216;-79
2022/02/15 08:04:49;;;;;;;7.30;5.23;;;7.10;99.90;;;;;;5074753;28;20218;-78
2022/02/15 08:07:18;;;;;;;8.00;5.60;;;7.10;99.90;;;;;;5074757;28;20825;-78
2022/02/15 08:09:43;;;;;;;8.17;4.33;;;7.10;99.90;;;;;;5074610;28;20169;-79
2022/02/15 08:12:18;;;;;;;7.07;5.27;;;7.20;99.90;;;;;;5074172;28;20474;-79
2022/02/15 08:14:48;;;;;;;8.30;4.77;;;7.10;99.90;;;;;;5074431;28;20230;-79
2022/02/15 08:17:14;;;;;;;8.33;5.50;;;7.10;99.90;;;;;;5074505;28;20404;-79
2022/02/15 08:19:39;;;;;;;8.20;5.13;;;7.20;99.90;;;;;;5074482;28;20760;-79
2022/02/15 08:22:05;;;;;;;8.27;5.27;;;7.10;99.90;;;;;;5074204;28;20180;-79
2022/02/15 08:24:31;;;;;;;11.50;5.00;;;7.10;99.90;;;;;;5074350;28;20213;-79
2022/02/15 08:26:57;;;;;;;9.60;5.33;;;7.00;99.90;;;;;;5073903;28;20184;-79
2022/02/15 08:29:23;;;;;;;7.93;4.17;;;7.00;99.90;;;;;;5074114;28;20175;-79
2022/02/15 08:31:49;;;;;;;9.27;5.50;;;7.10;99.90;;;;;;5074353;28;20413;-79
2022/02/15 08:34:15;;;;;;;13.80;5.23;;;7.10;99.90;;;;;;5074190;28;20175;-79
2022/02/15 08:36:40;;;;;;;8.57;4.63;;;7.20;99.90;;;;;;5074006;28;20508;-80
2022/02/15 08:39:06;;;;;;;7.97;5.40;;;7.20;99.90;;;;;;5072653;28;20186;-79
2022/02/15 08:41:32;;;;;;;12.10;4.63;;;7.20;99.90;;;;;;5073550;28;20236;-79
2022/02/15 08:43:58;;;;;;;14.27;6.30;;;7.20;99.90;;;;;;5073652;28;20233;-79
2022/02/15 08:46:24;;;;;;;10.20;4.37;;;7.20;99.90;;;;;;5074050;28;20412;-79
2022/02/15 08:48:53;;;;;;;7.67;5.53;;;7.20;99.90;;;;;;5073923;28;20766;-79
2022/02/15 08:51:19;;;;;;;8.50;5.43;;;7.20;99.90;;;;;;5072527;28;20471;-79
2022/02/15 08:53:50;;;;;;;7.90;5.70;;;7.20;99.90;;;;;;5073659;28;20462;-80
2022/02/15 08:56:18;;;;;;;7.90;4.77;;;7.20;99.90;;;;;;5072231;28;20424;-80
2022/02/15 08:58:43;;;;;;;8.53;6.17;;;7.30;99.90;;;;;;5073695;28;20751;-79
2022/02/15 09:01:09;;;;;;;9.13;5.77;;;7.30;99.90;;;;;;5073574;28;20500;-79
2022/02/15 09:03:35;;;;;;;7.10;5.37;;;7.30;99.90;;;;;;5072191;28;20216;-79
2022/02/15 09:06:04;;;;;;;9.23;5.20;;;7.30;99.90;;;;;;5073645;28;20525;-79
2022/02/15 09:08:30;;;;;;;7.47;4.77;;;7.40;99.90;;;;;;5073615;28;20211;-79
2022/02/15 09:10:55;;;;;;;7.70;4.73;;;7.40;94.80;;;;;;5073321;28;20441;-79
2022/02/15 09:13:21;;;;;;;6.50;4.27;;;7.40;72.50;;;;;;5080654;28;20174;-79
2022/02/15 09:15:46;;;;;;;6.57;4.03;;;7.50;88.60;;;;;;5075367;28;20185;-79
2022/02/15 09:18:12;;;;;;;8.73;4.83;;;7.60;58.10;;;;;;5073227;28;20166;-79
2022/02/15 09:20:38;;;;;;;9.70;4.20;;;7.70;29.70;;;;;;5073322;28;20180;-79
2022/02/15 09:23:04;;;;;;;9.83;5.70;;;7.80;6.50;;;;;;5073207;28;20172;-79
2022/02/15 09:25:30;;;;;;;8.40;4.63;;;7.80;1.00;;;;;;5071576;28;20587;-79
2022/02/15 09:27:57;;;;;;;6.50;3.90;;;7.90;1.00;;;;;;5073285;28;20411;-79
2022/02/15 09:30:22;;;;;;;5.90;4.30;;;8.10;1.00;;;;;;5073246;28;20173;-79
2022/02/15 09:32:48;;;;;;;6.83;4.90;;;8.30;1.00;;;;;;5071622;28;20427;-80
2022/02/15 09:35:17;;;;;;;4.77;3.70;;;8.70;1.00;;;;;;5073073;28;20226;-78
2022/02/15 09:37:42;;;;;;;5.70;3.10;;;9.00;76.30;;;;;;5073126;28;20179;-79
2022/02/15 09:40:09;;;;;;;7.43;3.97;;;9.30;99.90;;;;;;5073099;28;20415;-79
2022/02/15 09:42:36;;;;;;;6.30;3.47;;;10.40;99.90;;;;;;5072376;28;20229;-78
2022/02/15 09:45:07;;;;;;;6.43;3.40;;;10.70;1.00;;;;;;5072734;28;20848;-80
2022/02/15 09:47:35;;;;;;;7.63;3.27;;;10.10;99.90;;;;;;5072756;28;20511;-81
2022/02/15 09:50:04;;;;;;;4.97;2.67;;;9.50;1.00;;;;;;5072917;28;20779;-81
2022/02/15 09:52:30;;;;;;;6.20;3.33;;;9.30;1.00;;;;;;5072886;28;20428;-81
2022/02/15 09:54:55;;;;;;;7.10;3.10;;;9.50;1.00;;;;;;5072844;28;20993;-80
2022/02/15 09:57:26;;;;;;;5.00;3.17;;;10.60;1.00;;;;;;5072507;28;20176;-80
2022/02/15 09:59:53;;;;;;;5.80;3.23;;;10.30;1.00;;;;;;5071591;28;20181;-80
2022/02/15 10:02:23;;;;;;;6.20;3.73;;;10.10;1.00;;;;;;5072397;28;20903;-79
2022/02/15 10:04:58;;;;;;;5.07;2.73;;;9.80;99.90;;;;;;5072690;28;20476;-79
2022/02/15 10:07:24;;;;;;;4.90;3.10;;;9.50;99.90;;;;;;5072723;28;20463;-79
2022/02/15 10:09:51;;;;;;;5.47;3.40;;;9.50;99.90;;;;;;5072655;28;20462;-80
2022/02/15 10:12:17;;;;;;;6.13;2.87;;;9.60;1.00;;;;;;5071956;28;20416;-80
2022/02/15 10:14:46;;;;;;;3.50;2.30;;;9.50;1.00;;;;;;5072699;28;20563;-80
2022/02/15 10:17:13;;;;;;;5.27;3.37;;;9.40;99.90;;;;;;5071412;28;20792;-79
2022/02/15 10:19:41;;;;;;;5.57;2.70;;;9.60;58.20;;;;;;5072652;28;20427;-80
2022/02/15 10:22:07;;;;;;;4.70;3.10;;;10.20;99.90;;;;;;5072631;28;20574;-80
2022/02/15 10:24:35;;;;;;;8.47;3.60;;;10.30;1.00;;;;;;5072237;28;21030;-80
2022/02/15 10:27:30;;;;;;;5.93;2.90;;;10.20;99.90;;;;;;5068251;28;20425;-83
2022/02/15 10:29:57;;;;;;;4.07;2.80;;;9.50;1.00;;;;;;5052100;28;20426;-87
2022/02/15 10:32:25;;;;;;;3.40;2.80;;;9.30;1.00;;;;;;5051563;28;20411;-87
2022/02/15 10:35:08;;;;;;;6.27;3.20;;;9.60;99.90;;;;;;5050929;28;20512;-89
2022/02/15 10:37:34;;;;;;;3.83;2.77;;;9.30;1.00;;;;;;5051179;28;20426;-85
2022/02/15 10:40:02;;;;;;;6.50;3.83;;;9.00;1.00;;;;;;5052199;28;20835;-90
2022/02/15 10:42:30;;;;;;;4.83;3.60;;;9.40;38.10;;;;;;5052036;28;20254;-90
2022/02/15 10:45:00;;;;;;;8.43;3.70;;;;;;;;;;5051504;28;20556;-89
2022/02/15 10:47:29;;;;;;;4.93;3.90;;;10.80;99.90;;;;;;5051565;28;20418;-91
2022/02/15 10:49:56;;;;;;;5.77;3.40;;;12.20;1.00;;;;;;5052721;28;20426;-89
2022/02/15 10:52:22;;;;;;;5.10;3.90;;;11.80;1.00;;;;;;5051614;28;20427;-91
2022/02/15 10:54:48;;;;;;;3.80;2.97;;;11.90;1.00;;;;;;5065235;28;20598;-89
2022/02/15 10:57:15;;;;;;;6.43;3.43;;;10.70;1.00;;;;;;5071706;28;20500;-91
2022/02/15 10:59:42;;;;;;;5.53;3.33;;;10.10;1.00;;;;;;5071480;28;20226;-88
2022/02/15 11:02:15;;;;;;;5.83;3.93;;;9.90;99.90;;;;;;5071733;28;20511;-89
2022/02/15 11:04:43;;;;;;;6.13;3.57;;;9.70;99.90;;;;;;5069959;28;20530;-87
2022/02/15 11:07:11;;;;;;;6.00;4.40;;;9.80;99.90;;;;;;5070149;28;20417;-88
2022/02/15 11:09:42;;;;;;;6.67;5.20;;;9.70;1.00;;;;;;5070096;28;20511;-87
2022/02/15 11:12:25;;;;;;;6.53;4.80;;;9.80;1.00;;;;;;5070831;28;20418;-87
2022/02/15 11:15:05;;;;;;;8.20;5.60;;;9.80;1.00;;;;;;5073855;28;20476;-86
2022/02/15 11:17:34;;;;;;;10.37;4.67;;;9.50;99.90;;;;;;5073538;28;20420;-87
2022/02/15 11:20:10;;;;;;;7.30;3.43;;;9.60;99.90;;;;;;5074796;28;20416;-86
2022/02/15 11:23:02;;;;;;;4.40;3.97;;;9.60;1.00;;;;;;5087203;28;20414;-89
2022/02/15 11:25:37;;;;;;;7.33;4.10;;;9.60;1.00;;;;;;5071855;28;20455;-88
2022/02/15 11:28:11;;;;;;;7.93;4.57;;;9.40;1.00;;;;;;5075803;28;20493;-87
2022/02/15 11:30:57;;;;;;;6.23;4.73;;;9.10;99.90;;;;;;5075072;28;20419;-87
2022/02/15 11:33:26;;;;;;;9.63;5.67;;;9.20;1.00;;;;;;5073732;28;20436;-88
2022/02/15 11:36:12;;;;;;;7.87;4.70;;;9.00;99.90;;;;;;5074263;28;20516;-86
2022/02/15 11:38:37;;;;;;;9.07;6.20;;;9.10;1.00;;;;;;5074798;28;20971;-90
2022/02/15 11:41:11;;;;;;;7.13;4.80;;;9.10;1.00;;;;;;5074181;28;20461;-88
2022/02/15 11:43:37;;;;;;;8.03;5.70;;;9.10;99.90;;;;;;5069673;28;20222;-87
2022/02/15 11:46:04;;;;;;;9.03;5.50;;;8.90;99.90;;;;;;5059776;28;20429;-88
2022/02/15 11:48:41;;;;;;;6.50;5.43;;;8.90;1.00;;;;;;5055598;28;20291;-94
2022/02/15 11:51:23;;;;;;;10.30;5.13;;;8.80;99.90;;;;;;5055940;28;20423;-89
2022/02/15 11:53:57;;;;;;;7.53;4.93;;;8.90;99.90;;;;;;5055984;28;20418;-91
2022/02/15 11:56:23;;;;;;;6.77;4.70;;;9.10;69.60;;;;;;5054382;28;20509;-89
2022/02/15 11:58:51;;;;;;;9.03;5.10;;;9.20;99.90;;;;;;5070830;28;20892;-89
2022/02/15 12:01:30;;;;;;;7.73;5.47;;;9.30;30.10;;;;;;5072119;28;20534;-91
2022/02/15 12:04:02;;;;;;;8.30;5.07;;;9.40;99.90;;;;;;5073969;28;20478;-87
2022/02/15 12:06:39;;;;;;;7.20;4.77;;;10.00;99.90;;;;;;5075009;28;20759;-84
2022/02/15 12:09:08;;;;;;;7.97;4.97;;;11.20;99.90;;;;;;5074343;28;20492;-85
2022/02/15 12:11:42;;;;;;;9.70;4.83;;;11.10;99.90;;;;;;5073706;28;20424;-86
2022/02/15 12:14:13;;;;;;;9.27;5.47;;;11.10;99.90;;;;;;5073257;28;20947;-87
2022/02/15 12:16:52;;;;;;;5.67;4.67;;;12.70;99.90;;;;;;5073185;28;20421;-87
2022/02/15 12:19:32;;;;;;;6.30;3.97;;;12.90;1.00;;;;;;5074741;28;20510;-88
2022/02/15 12:22:03;;;;;;;7.53;5.90;;;11.20;1.00;;;;;;5075617;28;20839;-87
2022/02/15 12:24:30;;;;;;;6.17;4.60;;;10.80;1.00;;;;;;5075487;28;20543;-89
2022/02/15 12:27:00;;;;;;;6.20;4.50;;;10.50;11.30;;;;;;5072450;28;20429;-85
2022/02/15 12:29:28;;;;;;;5.83;4.13;;;10.00;99.90;;;;;;5073687;28;20445;-86
2022/02/15 12:31:57;;;;;;;5.97;3.83;;;9.60;99.90;;;;;;5074078;28;21040;-87
2022/02/15 12:34:23;;;;;;;6.10;4.40;;;9.50;1.00;;;;;;5072792;28;20415;-87
2022/02/15 12:36:49;;;;;;;7.27;4.53;;;9.30;1.00;;;;;;5074406;28;20763;-86
2022/02/15 12:39:18;;;;;;;6.50;5.37;;;9.00;1.00;;;;;;5074821;28;20419;-90
2022/02/15 12:41:47;;;;;;;5.57;4.03;;;9.00;1.00;;;;;;5073362;28;20239;-86
2022/02/15 12:44:12;;;;;;;6.70;4.73;;;9.10;1.00;;;;;;5074199;28;20523;-85
2022/02/15 12:46:38;;;;;;;10.00;6.23;;;8.90;1.00;;;;;;5074416;28;20426;-88
2022/02/15 12:49:07;;;;;;;5.40;3.80;;;8.90;1.00;;;;;;5073978;28;20180;-87
2022/02/15 12:51:36;;;;;;;9.63;5.57;;;8.90;99.90;;;;;;5075619;28;20519;-89
2022/02/15 12:54:04;;;;;;;6.47;5.10;;;8.90;99.90;;;;;;5075406;28;20430;-86
2022/02/15 12:56:31;;;;;;;9.20;5.90;;;9.00;1.00;;;;;;5071915;28;20482;-86
2022/02/15 12:59:02;;;;;;;9.03;5.77;;;8.90;1.00;;;;;;5073898;28;20783;-86
2022/02/15 13:01:28;;;;;;;7.70;5.77;;;9.10;99.90;;;;;;5072577;28;20461;-86
2022/02/15 13:03:56;;;;;;;9.40;5.93;;;9.10;99.90;;;;;;5073537;28;20440;-86
2022/02/15 13:06:24;;;;;;;9.73;6.53;;;9.10;99.90;;;;;;5073708;28;20430;-86
2022/02/15 13:08:55;;;;;;;8.63;5.37;;;9.00;1.00;;;;;;5072362;28;20507;-86